Time;durP1;ratioP1;P1;durP2;ratioP2;P2;SDS_P1;SDS_P2;PMS_P1;PMS_P2;Temp;Humidity;BMP_temperature;BMP_pressure;BME280_temperature;BME280_humidity;BME280_pressure;Samples;Min_cycle;Max_cycle;Signal;HPM_P1;HPM_P2
2022/10/31 00:00:30;;;;;;;;;;;;;;;16.35;61.75;99274.63;4486921;31;19971;-85
2022/10/31 00:02:55;;;;;;;;;;;;;;;16.35;61.78;99271.97;4485769;32;19964;-85
2022/10/31 00:05:20;;;;;;;;;;;;;;;16.40;61.71;99269.84;4486924;31;19964;-85
2022/10/31 00:07:46;;;;;;;;;;;;;;;16.41;61.91;99273.34;4486949;32;19992;-85
2022/10/31 00:10:11;;;;;;;;;;;;;;;16.36;62.00;99263.06;4486846;32;20011;-85
2022/10/31 00:12:36;;;;;;;;;;;;;;;16.41;61.97;99262.72;4486865;32;20252;-85
2022/10/31 00:15:01;;;;;;;;;;;;;;;16.43;61.91;99264.28;4485667;32;19976;-85
2022/10/31 00:17:27;;;;;;;;;;;;;;;16.42;61.73;99267.94;4486795;32;19991;-85
2022/10/31 00:19:52;;;;;;;;;;;;;;;16.12;62.41;99268.28;4486510;32;19979;-85
2022/10/31 00:22:17;;;;;;;;;;;;;;;16.05;62.70;99269.66;4486691;32;20326;-85
2022/10/31 00:24:42;;;;;;;;;;;;;;;16.23;62.22;99255.09;4485225;32;19975;-85
2022/10/31 00:27:08;;;;;;;;;;;;;;;16.33;62.16;99262.41;4486598;32;19972;-85
2022/10/31 00:29:33;;;;;;;;;;;;;;;16.37;62.14;99259.41;4485192;32;20000;-85
2022/10/31 00:31:58;;;;;;;;;;;;;;;16.44;61.80;99257.19;4486239;32;19968;-85
2022/10/31 00:34:23;;;;;;;;;;;;;;;16.45;61.66;99254.41;4485337;32;19972;-85
2022/10/31 00:36:49;;;;;;;;;;;;;;;16.45;61.79;99256.22;4486456;32;19990;-85
2022/10/31 00:39:14;;;;;;;;;;;;;;;16.40;61.93;99259.22;4486463;32;19998;-85
2022/10/31 00:41:39;;;;;;;;;;;;;;;16.13;62.58;99262.00;4485039;32;19976;-85
2022/10/31 00:44:04;;;;;;;;;;;;;;;16.26;62.25;99251.34;4486284;32;19968;-86
2022/10/31 00:46:30;;;;;;;;;;;;;;;16.38;61.97;99258.47;4486342;32;20303;-85
2022/10/31 00:48:55;;;;;;;;;;;;;;;16.27;62.09;99256.56;4486299;32;19987;-85
2022/10/31 00:51:20;;;;;;;;;;;;;;;16.28;62.34;99250.31;4487892;32;19960;-85
2022/10/31 00:53:45;;;;;;;;;;;;;;;16.30;62.24;99242.19;4488496;32;19971;-85
2022/10/31 00:56:11;;;;;;;;;;;;;;;16.33;62.23;99247.31;4487163;32;20015;-85
2022/10/31 00:58:36;;;;;;;;;;;;;;;16.29;62.37;99252.00;4488402;32;19980;-85
2022/10/31 01:01:02;;;;;;;;;;;;;;;15.98;63.06;99249.78;4488453;31;19999;-85
2022/10/31 01:03:28;;;;;;;;;;;;;;;15.64;64.74;99246.75;4488361;32;19986;-85
2022/10/31 01:06:01;;;;;;;;;;;;;;;15.91;63.55;99252.00;4487215;32;20323;-85
2022/10/31 01:08:26;;;;;;;;;;;;;;;16.04;63.23;99252.88;4487168;32;20032;-85
2022/10/31 01:11:01;;;;;;;;;;;;;;;15.99;63.47;99259.44;4486891;32;20055;-85
2022/10/31 01:13:26;;;;;;;;;;;;;;;16.10;63.25;99248.94;4487017;32;20582;-85
2022/10/31 01:15:55;;;;;;;;;;;;;;;16.19;63.21;99253.59;4487020;32;19988;-85
2022/10/31 01:18:26;;;;;;;;;;;;;;;16.16;63.29;99243.19;4488298;31;19980;-85
2022/10/31 01:21:01;;;;;;;;;;;;;;;16.10;63.33;99247.13;4486926;32;19968;-85
2022/10/31 01:23:26;;;;;;;;;;;;;;;15.98;63.75;99241.81;4488265;31;20259;-85
2022/10/31 01:25:59;;;;;;;;;;;;;;;16.12;63.38;99241.69;4486899;32;20022;-85
2022/10/31 01:28:24;;;;;;;;;;;;;;;16.21;63.21;99241.06;4488365;31;20020;-85
2022/10/31 01:30:49;;;;;;;;;;;;;;;16.18;63.32;99243.06;4487839;32;19972;-85
2022/10/31 01:33:14;;;;;;;;;;;;;;;16.10;63.61;99232.97;4488133;32;20038;-85
2022/10/31 01:35:40;;;;;;;;;;;;;;;16.12;63.45;99231.91;4487887;32;19972;-85
2022/10/31 01:38:05;;;;;;;;;;;;;;;16.15;63.44;99233.53;4486884;32;20070;-85
2022/10/31 01:40:30;;;;;;;;;;;;;;;16.14;63.37;99236.28;4486839;32;19991;-85
2022/10/31 01:42:55;;;;;;;;;;;;;;;16.19;63.33;99232.34;4486622;32;19991;-85
2022/10/31 01:45:21;;;;;;;;;;;;;;;16.21;63.31;99235.75;4486914;32;20034;-85
2022/10/31 01:47:46;;;;;;;;;;;;;;;16.14;63.51;99236.28;4488014;32;20237;-85
2022/10/31 01:50:13;;;;;;;;;;;;;;;16.16;63.54;99232.53;4487882;32;20017;-85
2022/10/31 01:52:40;;;;;;;;;;;;;;;15.57;65.21;99226.88;4488063;32;20044;-85
2022/10/31 01:55:13;;;;;;;;;;;;;;;15.82;64.62;99231.37;4486973;32;20003;-85
2022/10/31 01:57:40;;;;;;;;;;;;;;;16.03;63.99;99223.72;4486894;32;19999;-85
2022/10/31 02:00:07;;;;;;;;;;;;;;;16.12;63.61;99228.41;4486794;32;19972;-86
2022/10/31 02:02:32;;;;;;;;;;;;;;;16.08;63.52;99226.94;4487566;31;19986;-85
2022/10/31 02:04:57;;;;;;;;;;;;;;;16.02;63.47;99235.34;4487828;31;20011;-85
2022/10/31 02:07:27;;;;;;;;;;;;;;;15.80;63.54;99233.31;4486800;32;20020;-85
2022/10/31 02:09:53;;;;;;;;;;;;;;;15.43;64.71;99231.34;4486759;32;19980;-86
2022/10/31 02:12:18;;;;;;;;;;;;;;;15.66;63.83;99221.78;4487808;31;20209;-85
2022/10/31 02:14:43;;;;;;;;;;;;;;;15.21;64.82;99221.28;4486734;32;19980;-85
2022/10/31 02:17:08;;;;;;;;;;;;;;;15.61;63.35;99220.44;4487959;32;19990;-85
2022/10/31 02:19:37;;;;;;;;;;;;;;;15.72;62.76;99224.03;4487611;32;19976;-85
2022/10/31 02:22:05;;;;;;;;;;;;;;;15.84;62.31;99224.16;4487837;32;20117;-85
2022/10/31 02:24:30;;;;;;;;;;;;;;;15.94;62.09;99221.75;4486501;32;20006;-85
2022/10/31 02:27:04;;;;;;;;;;;;;;;16.02;61.88;99217.56;4487785;32;19983;-85
2022/10/31 02:29:46;;;;;;;;;;;;;;;16.01;61.74;99215.87;4487739;32;19986;-85
2022/10/31 02:32:14;;;;;;;;;;;;;;;15.88;62.01;99218.53;4486452;32;19990;-85
2022/10/31 02:34:44;;;;;;;;;;;;;;;15.58;62.64;99221.47;4487763;32;19991;-85
2022/10/31 02:37:33;;;;;;;;;;;;;;;15.50;63.26;99214.03;4473442;32;19999;-85
2022/10/31 02:40:10;;;;;;;;;;;;;;;15.83;62.13;99220.66;4479282;32;19984;-85
2022/10/31 02:42:40;;;;;;;;;;;;;;;15.94;62.03;99227.91;4473662;32;19984;-85
2022/10/31 02:45:07;;;;;;;;;;;;;;;15.77;62.49;99228.22;4486817;32;19971;-85
2022/10/31 02:47:34;;;;;;;;;;;;;;;16.00;61.70;99223.97;4487971;31;20010;-85
2022/10/31 02:50:02;;;;;;;;;;;;;;;15.95;61.63;99237.56;4486752;32;19972;-85
2022/10/31 02:52:28;;;;;;;;;;;;;;;15.96;61.70;99235.78;4486587;32;19983;-85
2022/10/31 02:54:56;;;;;;;;;;;;;;;16.02;61.68;99233.53;4486679;32;20011;-85
2022/10/31 02:57:25;;;;;;;;;;;;;;;16.04;61.60;99236.06;4487867;31;20255;-85
2022/10/31 02:59:53;;;;;;;;;;;;;;;16.12;61.22;99236.38;4486755;32;19972;-85
2022/10/31 03:02:37;;;;;;;;;;;;;;;15.64;62.41;99236.97;4473425;32;19968;-85
2022/10/31 03:05:14;;;;;;;;;;;;;;;15.89;61.77;99238.81;4486332;32;20039;-85
2022/10/31 03:07:57;;;;;;;;;;;;;;;15.79;61.84;99237.78;4486609;32;20495;-85
2022/10/31 03:10:31;;;;;;;;;;;;;;;15.64;62.27;99233.47;4486478;32;19985;-85
2022/10/31 03:12:56;;;;;;;;;;;;;;;15.72;62.01;99239.97;4486322;32;19963;-85
2022/10/31 03:15:22;;;;;;;;;;;;;;;14.79;65.16;99246.19;4487543;32;20033;-85
2022/10/31 03:17:52;;;;;;;;;;;;;;;15.05;64.36;99249.81;4487464;32;19983;-86
2022/10/31 03:20:18;;;;;;;;;;;;;;;15.18;63.85;99245.38;4472930;32;20023;-85
2022/10/31 03:22:46;;;;;;;;;;;;;;;14.80;65.22;99251.41;4473022;32;19984;-85
2022/10/31 03:25:11;;;;;;;;;;;;;;;14.98;65.17;99254.66;4473004;32;20000;-85
2022/10/31 03:27:37;;;;;;;;;;;;;;;14.91;65.12;99253.34;4487581;32;19976;-85
2022/10/31 03:30:03;;;;;;;;;;;;;;;15.07;65.09;99245.25;4486236;32;19978;-85
2022/10/31 03:32:34;;;;;;;;;;;;;;;15.12;64.89;99259.94;4485924;32;20315;-85
2022/10/31 03:34:59;;;;;;;;;;;;;;;15.29;64.25;99258.78;4486283;32;20434;-85
2022/10/31 03:37:25;;;;;;;;;;;;;;;15.44;63.85;99254.28;4486003;32;20007;-85
2022/10/31 03:39:51;;;;;;;;;;;;;;;15.47;63.73;99259.38;4486027;32;19986;-85
2022/10/31 03:42:18;;;;;;;;;;;;;;;15.61;63.45;99252.28;4472741;32;19989;-85
2022/10/31 03:44:48;;;;;;;;;;;;;;;15.19;64.14;99252.41;4472832;32;20042;-86
2022/10/31 03:47:14;;;;;;;;;;;;;;;15.54;63.32;99246.53;4472750;32;19995;-85
2022/10/31 03:49:39;;;;;;;;;;;;;;;15.62;63.11;99249.50;4485911;32;20008;-85
2022/10/31 03:52:07;;;;;;;;;;;;;;;15.68;63.00;99253.56;4485878;32;19964;-85
2022/10/31 03:54:42;;;;;;;;;;;;;;;15.72;62.79;99258.56;4487072;32;19991;-85
2022/10/31 03:57:11;;;;;;;;;;;;;;;15.77;62.74;99265.41;4485942;32;20340;-85
2022/10/31 03:59:37;;;;;;;;;;;;;;;15.73;62.87;99262.09;4487110;31;20696;-85
2022/10/31 04:02:03;;;;;;;;;;;;;;;15.77;62.79;99257.44;4485877;32;19980;-85
2022/10/31 04:04:28;;;;;;;;;;;;;;;15.80;62.55;99257.22;4472641;32;20335;-85
2022/10/31 04:06:54;;;;;;;;;;;;;;;15.85;62.35;99253.28;4485715;32;19983;-85
2022/10/31 04:09:19;;;;;;;;;;;;;;;15.84;62.36;99258.69;4485710;32;20261;-85
2022/10/31 04:11:46;;;;;;;;;;;;;;;15.84;62.03;99254.25;4486666;32;19976;-85
2022/10/31 04:14:11;;;;;;;;;;;;;;;15.70;62.56;99262.25;4485654;32;20033;-85
2022/10/31 04:16:37;;;;;;;;;;;;;;;15.80;62.52;99244.78;4486780;32;19980;-85
2022/10/31 04:19:02;;;;;;;;;;;;;;;15.80;62.71;99252.78;4485637;32;20054;-85
2022/10/31 04:21:28;;;;;;;;;;;;;;;15.85;62.69;99257.75;4486587;32;19992;-85
2022/10/31 04:23:53;;;;;;;;;;;;;;;15.85;62.71;99261.25;4485914;32;19980;-85
2022/10/31 04:26:19;;;;;;;;;;;;;;;15.70;63.13;99263.13;4487516;32;20024;-85
2022/10/31 04:28:44;;;;;;;;;;;;;;;15.86;62.71;99273.59;4488648;32;19978;-85
2022/10/31 04:31:10;;;;;;;;;;;;;;;15.82;62.60;99274.75;4487151;32;20003;-85
2022/10/31 04:33:36;;;;;;;;;;;;;;;15.91;62.41;99271.44;4488596;31;19972;-85
2022/10/31 04:36:01;;;;;;;;;;;;;;;15.96;62.37;99273.81;4488607;32;20036;-85
2022/10/31 04:38:26;;;;;;;;;;;;;;;16.00;62.43;99275.28;4488491;32;19968;-85
2022/10/31 04:40:52;;;;;;;;;;;;;;;15.99;62.49;99270.09;4487243;32;20015;-85
2022/10/31 04:43:20;;;;;;;;;;;;;;;16.04;62.50;99274.12;4488514;31;19979;-85
2022/10/31 04:45:45;;;;;;;;;;;;;;;15.80;63.06;99274.03;4488584;32;19991;-85
2022/10/31 04:48:10;;;;;;;;;;;;;;;15.97;62.65;99277.31;4487322;32;19978;-85
2022/10/31 04:50:36;;;;;;;;;;;;;;;16.03;62.53;99277.75;4488383;32;19986;-85
2022/10/31 04:53:01;;;;;;;;;;;;;;;16.09;62.45;99284.44;4487144;32;19990;-85
2022/10/31 04:55:26;;;;;;;;;;;;;;;15.65;63.54;99273.22;4488370;32;19979;-85
2022/10/31 04:57:54;;;;;;;;;;;;;;;15.97;62.92;99279.97;4488308;32;20402;-85
2022/10/31 05:00:21;;;;;;;;;;;;;;;16.03;62.73;99277.75;4488481;32;20337;-85
2022/10/31 05:02:47;;;;;;;;;;;;;;;16.02;62.80;99280.50;4487340;32;19988;-85
2022/10/31 05:05:15;;;;;;;;;;;;;;;16.04;62.91;99276.78;4474415;32;20007;-85
2022/10/31 05:07:41;;;;;;;;;;;;;;;16.07;62.92;99284.56;4488608;31;19972;-85
2022/10/31 05:10:06;;;;;;;;;;;;;;;16.00;63.02;99279.78;4488657;31;19968;-85
2022/10/31 05:12:38;;;;;;;;;;;;;;;16.03;62.92;99277.75;4488454;31;20045;-85
2022/10/31 05:15:04;;;;;;;;;;;;;;;16.02;63.04;99280.50;4488588;32;20315;-85
2022/10/31 05:17:30;;;;;;;;;;;;;;;15.73;64.11;99288.66;4474110;32;19984;-85
2022/10/31 05:19:58;;;;;;;;;;;;;;;15.59;64.38;99272.75;4487127;32;20233;-85
2022/10/31 05:22:24;;;;;;;;;;;;;;;15.74;64.14;99287.69;4488451;32;19995;-85
2022/10/31 05:24:49;;;;;;;;;;;;;;;15.85;63.77;99285.16;4488461;32;19987;-85
2022/10/31 05:27:14;;;;;;;;;;;;;;;15.87;63.74;99269.13;4487211;32;19987;-86
2022/10/31 05:29:39;;;;;;;;;;;;;;;15.94;63.73;99285.50;4488496;32;20254;-85
2022/10/31 05:32:05;;;;;;;;;;;;;;;15.95;63.77;99272.09;4488378;32;19998;-85
2022/10/31 05:34:30;;;;;;;;;;;;;;;15.98;63.84;99292.31;4488425;32;19980;-85
2022/10/31 05:36:55;;;;;;;;;;;;;;;16.02;63.87;99291.13;4487870;31;20235;-85
2022/10/31 05:39:20;;;;;;;;;;;;;;;16.01;63.92;99289.44;4488297;32;19964;-85
2022/10/31 05:41:45;;;;;;;;;;;;;;;15.96;63.95;99294.22;4488379;32;20304;-85
2022/10/31 05:44:11;;;;;;;;;;;;;;;15.97;63.95;99290.59;4487068;32;20240;-85
2022/10/31 05:46:36;;;;;;;;;;;;;;;16.00;64.00;99301.03;4488052;32;20018;-85
2022/10/31 05:49:01;;;;;;;;;;;;;;;16.02;64.07;99304.44;4488319;31;19999;-85
2022/10/31 05:51:29;;;;;;;;;;;;;;;16.00;64.04;99301.03;4488302;31;20312;-85
2022/10/31 05:53:55;;;;;;;;;;;;;;;16.00;64.13;99295.72;4488305;32;19987;-85
2022/10/31 05:56:20;;;;;;;;;;;;;;;16.05;64.19;99297.09;4486915;32;19980;-85
2022/10/31 05:58:45;;;;;;;;;;;;;;;16.09;64.24;99279.13;4486708;32;20121;-85
2022/10/31 06:01:13;;;;;;;;;;;;;;;16.15;64.10;99285.81;4486708;32;19995;-85
2022/10/31 06:03:39;;;;;;;;;;;;;;;16.22;63.65;99287.09;4488107;31;19980;-85
2022/10/31 06:06:07;;;;;;;;;;;;;;;16.22;63.67;99295.91;4488019;32;20003;-85
2022/10/31 06:08:32;;;;;;;;;;;;;;;15.34;66.37;99298.31;4487992;31;20047;-85
2022/10/31 06:10:57;;;;;;;;;;;;;;;15.59;65.62;99299.31;4487496;32;20270;-85
2022/10/31 06:13:23;;;;;;;;;;;;;;;15.99;64.46;99294.00;4487850;32;19987;-85
2022/10/31 06:15:51;;;;;;;;;;;;;;;16.16;63.97;99301.66;4487826;32;19972;-85
2022/10/31 06:18:16;;;;;;;;;;;;;;;16.27;63.71;99280.50;4487756;32;19983;-85
2022/10/31 06:20:41;;;;;;;;;;;;;;;16.29;63.65;99283.06;4487539;32;19999;-85
2022/10/31 06:23:06;;;;;;;;;;;;;;;15.85;64.39;99309.06;4487816;32;19998;-85
2022/10/31 06:25:32;;;;;;;;;;;;;;;16.27;63.51;99296.44;4487668;32;20014;-85
2022/10/31 06:27:58;;;;;;;;;;;;;;;16.05;64.03;99288.25;4486609;32;19972;-85
2022/10/31 06:30:23;;;;;;;;;;;;;;;16.46;63.00;99289.84;4487698;32;20011;-85
2022/10/31 06:32:49;;;;;;;;;;;;;;;16.55;62.61;99293.63;4487836;32;20110;-85
2022/10/31 06:35:14;;;;;;;;;;;;;;;16.61;62.34;99298.53;4473311;32;20035;-85
2022/10/31 06:37:40;;;;;;;;;;;;;;;16.48;62.23;99302.06;4486564;32;19972;-85
2022/10/31 06:40:05;;;;;;;;;;;;;;;16.51;62.50;99308.97;4487793;32;19972;-85
2022/10/31 06:42:30;;;;;;;;;;;;;;;16.61;62.43;99317.13;4487588;31;20263;-85
2022/10/31 06:44:56;;;;;;;;;;;;;;;14.34;71.12;99332.00;4487351;32;19976;-85
2022/10/31 06:47:21;;;;;;;;;;;;;;;15.79;65.64;99330.75;4485373;32;19994;-85
2022/10/31 06:49:46;;;;;;;;;;;;;;;16.21;64.28;99320.81;4487544;31;20010;-85
2022/10/31 06:52:12;;;;;;;;;;;;;;;16.39;63.78;99317.81;4486368;32;20054;-85
2022/10/31 06:54:37;;;;;;;;;;;;;;;16.52;63.18;99323.97;4487711;31;20024;-85
2022/10/31 06:57:05;;;;;;;;;;;;;;;16.62;62.49;99327.69;4487548;32;20028;-85
2022/10/31 06:59:30;;;;;;;;;;;;;;;16.70;62.14;99329.78;4487587;31;19969;-85
2022/10/31 07:01:57;;;;;;;;;;;;;;;16.75;61.93;99332.97;4487518;32;20021;-85
2022/10/31 07:04:22;;;;;;;;;;;;;;;16.80;62.00;99320.19;4487638;31;20565;-85
2022/10/31 07:06:49;;;;;;;;;;;;;;;16.73;61.73;99332.25;4487555;31;19968;-85
2022/10/31 07:09:15;;;;;;;;;;;;;;;16.75;61.39;99335.66;4487513;31;19986;-85
2022/10/31 07:11:40;;;;;;;;;;;;;;;16.82;61.32;99333.41;4473024;32;19980;-85
2022/10/31 07:14:08;;;;;;;;;;;;;;;16.93;61.20;99324.66;4487440;32;19982;-85
2022/10/31 07:16:33;;;;;;;;;;;;;;;16.57;61.90;99337.78;4487467;31;20023;-85
2022/10/31 07:18:58;;;;;;;;;;;;;;;16.95;61.13;99331.56;4487426;32;19976;-85
2022/10/31 07:21:24;;;;;;;;;;;;;;;17.01;61.03;99330.28;4487244;32;19968;-85
2022/10/31 07:23:49;;;;;;;;;;;;;;;17.07;60.96;99329.84;4486155;32;20251;-85
2022/10/31 07:26:14;;;;;;;;;;;;;;;17.12;60.76;99327.69;4487329;32;19990;-85
2022/10/31 07:28:39;;;;;;;;;;;;;;;17.18;60.66;99334.38;4487341;32;20326;-85
2022/10/31 07:31:05;;;;;;;;;;;;;;;17.19;60.71;99331.63;4487273;32;19994;-85
2022/10/31 07:33:30;;;;;;;;;;;;;;;17.27;60.44;99336.38;4486081;32;19968;-85
2022/10/31 07:35:56;;;;;;;;;;;;;;;17.27;60.37;99331.06;4487079;32;19963;-85
2022/10/31 07:38:21;;;;;;;;;;;;;;;17.33;59.96;99330.59;4487277;32;19972;-85
2022/10/31 07:40:49;;;;;;;;;;;;;;;17.34;59.65;99337.59;4487195;31;19976;-85
2022/10/31 07:43:14;;;;;;;;;;;;;;;17.33;59.82;99348.41;4486021;32;20300;-85
2022/10/31 07:45:39;;;;;;;;;;;;;;;17.15;60.29;99342.59;4485944;32;19986;-85
2022/10/31 07:48:05;;;;;;;;;;;;;;;17.23;59.84;99348.19;4485885;32;19993;-85
2022/10/31 07:50:31;;;;;;;;;;;;;;;17.23;59.78;99346.41;4485707;32;19987;-86
2022/10/31 07:53:09;;;;;;;;;;;;;;;17.21;59.88;99339.47;4487219;31;20001;-85
2022/10/31 07:55:35;;;;;;;;;;;;;;;17.24;59.81;99339.25;4487079;31;20315;-85
2022/10/31 07:58:04;;;;;;;;;;;;;;;17.27;59.50;99341.72;4485888;32;20032;-85
2022/10/31 08:00:29;;;;;;;;;;;;;;;17.17;59.67;99349.53;4485382;32;19998;-85
2022/10/31 08:03:02;;;;;;;;;;;;;;;17.18;59.63;99345.87;4485896;32;19972;-85
2022/10/31 08:05:27;;;;;;;;;;;;;;;17.17;59.73;99345.97;4485799;32;19976;-85
2022/10/31 08:07:55;;;;;;;;;;;;;;;17.16;59.68;99344.28;4487039;31;19983;-85
2022/10/31 08:10:27;;;;;;;;;;;;;;;15.41;64.77;99355.34;4487051;31;20014;-85
2022/10/31 08:12:58;;;;;;;;;;;;;;;16.34;62.45;99352.72;4485914;32;19968;-85
2022/10/31 08:15:24;;;;;;;;;;;;;;;16.56;61.72;99343.22;4486794;31;19976;-85
2022/10/31 08:17:49;;;;;;;;;;;;;;;16.69;61.37;99350.22;4485652;32;20015;-85
2022/10/31 08:20:17;;;;;;;;;;;;;;;16.52;61.72;99353.22;4486561;32;19976;-85
2022/10/31 08:22:42;;;;;;;;;;;;;;;16.67;61.61;99353.97;4485579;32;19971;-85
2022/10/31 08:25:08;;;;;;;;;;;;;;;16.81;61.13;99356.50;4486800;31;20325;-86
2022/10/31 08:27:33;;;;;;;;;;;;;;;16.88;61.10;99354.25;4486669;32;20004;-85
2022/10/31 08:29:58;;;;;;;;;;;;;;;16.95;61.17;99357.34;4485538;32;19984;-85
2022/10/31 08:32:24;;;;;;;;;;;;;;;16.98;61.23;99355.31;4486469;32;20314;-85
2022/10/31 08:34:49;;;;;;;;;;;;;;;17.07;61.04;99354.66;4485379;32;19968;-85
2022/10/31 08:37:19;;;;;;;;;;;;;;;17.14;60.97;99348.88;4486502;32;20270;-85
2022/10/31 08:39:44;;;;;;;;;;;;;;;17.20;60.82;99348.44;4486488;31;19988;-85
2022/10/31 08:42:10;;;;;;;;;;;;;;;17.30;60.52;99352.13;4486467;32;20291;-85
2022/10/31 08:44:35;;;;;;;;;;;;;;;17.35;60.23;99347.31;4486412;32;19990;-85
2022/10/31 08:47:00;;;;;;;;;;;;;;;17.34;60.08;99350.91;4485205;32;20006;-85
2022/10/31 08:49:25;;;;;;;;;;;;;;;17.38;60.00;99355.06;4486413;32;20034;-85
2022/10/31 08:51:51;;;;;;;;;;;;;;;17.41;59.95;99349.50;4486194;32;19972;-85
2022/10/31 08:54:16;;;;;;;;;;;;;;;17.46;59.76;99351.81;4486203;32;20243;-85
2022/10/31 08:56:50;;;;;;;;;;;;;;;17.54;59.52;99353.91;4485961;32;19986;-85
2022/10/31 08:59:18;;;;;;;;;;;;;;;17.56;59.49;99355.53;4485077;32;20306;-85
2022/10/31 09:01:44;;;;;;;;;;;;;;;17.59;59.52;99349.12;4486153;32;19982;-85
2022/10/31 09:04:09;;;;;;;;;;;;;;;17.63;59.31;99356.75;4486120;31;19952;-86
2022/10/31 09:06:35;;;;;;;;;;;;;;;17.68;58.95;99359.94;4486042;32;20319;-85
2022/10/31 09:09:00;;;;;;;;;;;;;;;17.72;58.85;99357.03;4484974;32;19980;-85
2022/10/31 09:11:25;;;;;;;;;;;;;;;17.74;58.68;99363.09;4486750;32;19991;-85
2022/10/31 09:13:51;;;;;;;;;;;;;;;17.79;58.49;99360.94;4473919;32;19991;-85
2022/10/31 09:16:19;;;;;;;;;;;;;;;17.82;58.36;99360.72;4488381;31;19987;-85
2022/10/31 09:18:45;;;;;;;;;;;;;;;17.86;58.30;99363.03;4488262;32;19991;-85
2022/10/31 09:21:10;;;;;;;;;;;;;;;17.83;58.51;99360.59;4488163;32;20005;-85
2022/10/31 09:23:35;;;;;;;;;;;;;;;17.90;58.31;99362.81;4487999;32;20025;-85
2022/10/31 09:26:01;;;;;;;;;;;;;;;17.90;58.40;99360.16;4487825;32;19971;-85
2022/10/31 09:28:26;;;;;;;;;;;;;;;17.97;58.11;99367.56;4486936;32;20003;-85
2022/10/31 09:30:52;;;;;;;;;;;;;;;18.03;57.80;99367.09;4488100;31;20013;-85
2022/10/31 09:33:17;;;;;;;;;;;;;;;18.01;57.68;99365.53;4486987;32;19991;-85
2022/10/31 09:35:42;;;;;;;;;;;;;;;18.06;57.63;99364.22;4486948;32;20004;-85
2022/10/31 09:38:15;;;;;;;;;;;;;;;18.12;57.63;99362.91;4488204;32;20320;-85
2022/10/31 09:40:41;;;;;;;;;;;;;;;18.15;57.62;99369.81;4486919;32;19972;-85
2022/10/31 09:43:06;;;;;;;;;;;;;;;18.16;57.55;99369.69;4486999;32;19984;-85
2022/10/31 09:45:34;;;;;;;;;;;;;;;17.85;58.17;99372.03;4488107;32;20221;-85
2022/10/31 09:48:07;;;;;;;;;;;;;;;17.98;57.87;99368.41;4487019;32;19996;-85
2022/10/31 09:50:40;;;;;;;;;;;;;;;17.99;57.99;99376.31;4473641;32;19968;-85
2022/10/31 09:53:09;;;;;;;;;;;;;;;18.09;57.87;99376.44;4488129;31;19990;-85
2022/10/31 09:55:36;;;;;;;;;;;;;;;18.11;57.86;99371.84;4486757;32;20334;-85
2022/10/31 09:58:01;;;;;;;;;;;;;;;18.12;57.95;99359.34;4488048;32;20350;-85
2022/10/31 10:00:26;;;;;;;;;;;;;;;18.12;57.98;99370.91;4486730;32;19982;-85
2022/10/31 10:03:17;;;;;;;;;;;;;;;18.09;58.37;99363.13;4487970;32;20029;-85
2022/10/31 10:05:49;;;;;;;;;;;;;;;18.07;58.49;99357.91;4484935;32;19995;-85
2022/10/31 10:08:18;;;;;;;;;;;;;;;18.07;58.69;99362.38;4487115;32;20272;-85
2022/10/31 10:10:51;;;;;;;;;;;;;;;17.73;59.48;99367.59;4488213;31;20307;-85
2022/10/31 10:13:19;;;;;;;;;;;;;;;17.96;59.06;99365.03;4486973;32;19994;-85
2022/10/31 10:16:06;;;;;;;;;;;;;;;17.97;58.72;99362.25;4486838;32;20311;-85
2022/10/31 10:18:34;;;;;;;;;;;;;;;18.01;58.62;99361.03;4487073;32;20050;-85
2022/10/31 10:21:03;;;;;;;;;;;;;;;18.03;58.51;99361.78;4486585;32;19989;-85
2022/10/31 10:23:37;;;;;;;;;;;;;;;18.01;58.33;99357.53;4486299;32;20012;-85
2022/10/31 10:26:21;;;;;;;;;;;;;;;18.03;58.26;99364.44;4487841;32;19980;-85
2022/10/31 10:28:48;;;;;;;;;;;;;;;18.01;58.15;99358.38;4487866;31;20028;-85
2022/10/31 10:31:17;;;;;;;;;;;;;;;17.94;58.43;99358.97;4486444;32;20322;-85
2022/10/31 10:33:57;;;;;;;;;;;;;;;17.93;58.56;99350.12;4486408;32;19975;-86
2022/10/31 10:36:34;;;;;;;;;;;;;;;17.96;58.50;99349.03;4486671;32;19980;-85
2022/10/31 10:39:11;;;;;;;;;;;;;;;17.93;58.53;99351.94;4473501;32;19992;-85
2022/10/31 10:41:37;;;;;;;;;;;;;;;17.91;58.73;99353.87;4486580;32;19967;-85
2022/10/31 10:44:02;;;;;;;;;;;;;;;17.96;58.57;99349.03;4486448;32;20018;-85
2022/10/31 10:49:23;;;;;;;;;;;;;;;17.94;58.40;99345.63;4487704;32;20036;-85
2022/10/31 10:51:49;;;;;;;;;;;;;;;17.93;58.38;99349.28;4487511;32;20114;-85
2022/10/31 10:54:22;;;;;;;;;;;;;;;17.93;58.33;99344.78;4487738;32;19972;-85
2022/10/31 10:56:56;;;;;;;;;;;;;;;17.97;58.24;99348.91;4486447;32;19987;-85
2022/10/31 10:59:21;;;;;;;;;;;;;;;17.99;58.06;99354.97;4487735;32;20025;-85
2022/10/31 11:01:48;;;;;;;;;;;;;;;17.97;57.68;99346.25;4486351;32;19972;-85
2022/10/31 11:04:22;;;;;;;;;;;;;;;17.37;59.43;99355.19;4473281;32;20106;-85
2022/10/31 11:06:56;;;;;;;;;;;;;;;17.67;58.80;99350.25;4487661;32;19987;-85
2022/10/31 11:09:21;;;;;;;;;;;;;;;17.78;58.80;99344.09;4487596;31;19984;-85
2022/10/31 11:11:46;;;;;;;;;;;;;;;17.84;58.58;99346.31;4487404;32;19967;-85
2022/10/31 11:14:12;;;;;;;;;;;;;;;17.64;59.12;99345.13;4486300;32;20085;-85
2022/10/31 11:16:39;;;;;;;;;;;;;;;17.83;58.71;99338.44;4486404;32;20007;-86
2022/10/31 11:19:16;;;;;;;;;;;;;;;17.88;58.35;99345.13;4486314;32;20042;-85
2022/10/31 11:21:41;;;;;;;;;;;;;;;17.89;58.34;99338.00;4486190;32;19964;-85
2022/10/31 11:24:07;;;;;;;;;;;;;;;17.86;57.94;99332.88;4486172;32;20010;-85
2022/10/31 11:26:35;;;;;;;;;;;;;;;17.52;58.95;99340.75;4487461;32;19995;-85
2022/10/31 11:29:02;;;;;;;;;;;;;;;17.64;58.57;99342.47;4486282;32;20517;-85
2022/10/31 11:31:27;;;;;;;;;;;;;;;17.69;58.47;99336.78;4485840;32;20328;-85
2022/10/31 11:34:00;;;;;;;;;;;;;;;17.73;58.54;99330.28;4485336;32;19999;-85
2022/10/31 11:36:37;;;;;;;;;;;;;;;17.81;58.17;99333.22;4486162;32;20039;-85
2022/10/31 11:39:03;;;;;;;;;;;;;;;17.76;58.33;99335.38;4487293;31;19980;-86
2022/10/31 11:41:29;;;;;;;;;;;;;;;17.80;58.25;99320.00;4487266;31;20045;-85
2022/10/31 11:43:54;;;;;;;;;;;;;;;17.83;58.13;99322.44;4485886;32;20452;-85
2022/10/31 11:46:29;;;;;;;;;;;;;;;17.85;58.13;99315.22;4487011;32;19995;-85
2022/10/31 11:48:54;;;;;;;;;;;;;;;17.84;57.90;99319.66;4487073;32;19980;-86
2022/10/31 11:51:20;;;;;;;;;;;;;;;17.87;57.83;99313.28;4487074;32;20032;-85
2022/10/31 11:53:52;;;;;;;;;;;;;;;17.92;57.76;99321.75;4485997;32;19975;-85
2022/10/31 11:56:17;;;;;;;;;;;;;;;17.95;57.57;99324.19;4485917;32;19983;-85
2022/10/31 11:58:43;;;;;;;;;;;;;;;17.93;57.27;99327.94;4485824;32;20035;-85
2022/10/31 12:01:27;;;;;;;;;;;;;;;17.95;57.02;99326.88;4485922;32;20241;-85
2022/10/31 12:03:55;;;;;;;;;;;;;;;17.88;57.27;99323.78;4487124;31;20009;-85
2022/10/31 12:06:39;;;;;;;;;;;;;;;17.83;57.63;99325.13;4472733;32;20028;-86
2022/10/31 12:09:14;;;;;;;;;;;;;;;17.85;57.63;99324.06;4485905;32;19980;-85
2022/10/31 12:11:39;;;;;;;;;;;;;;;17.84;57.67;99326.81;4485720;32;19979;-85
2022/10/31 12:14:05;;;;;;;;;;;;;;;17.64;58.09;99323.81;4486840;32;19967;-85
2022/10/31 12:16:38;;;;;;;;;;;;;;;17.72;58.07;99323.25;4486817;32;19972;-85
2022/10/31 12:19:13;;;;;;;;;;;;;;;17.59;58.58;99325.97;4485615;32;20008;-85
2022/10/31 12:21:57;;;;;;;;;;;;;;;17.78;57.98;99328.09;4485466;32;20308;-85
2022/10/31 12:24:22;;;;;;;;;;;;;;;17.80;57.81;99315.50;4487070;32;20054;-85
2022/10/31 12:27:06;;;;;;;;;;;;;;;17.83;57.65;99317.97;4485623;32;20033;-85
2022/10/31 12:29:32;;;;;;;;;;;;;;;17.34;59.06;99329.63;4485647;32;20398;-85
2022/10/31 12:32:03;;;;;;;;;;;;;;;17.68;58.33;99319.12;4486551;31;19967;-86
2022/10/31 12:34:50;;;;;;;;;;;;;;;17.75;58.27;99320.38;4486674;32;19984;-85
2022/10/31 12:37:34;;;;;;;;;;;;;;;17.75;58.23;99320.38;4485424;32;20236;-85
2022/10/31 12:40:12;;;;;;;;;;;;;;;17.79;58.12;99320.94;4486752;32;20039;-85
2022/10/31 12:42:40;;;;;;;;;;;;;;;17.78;58.13;99316.59;4486508;32;19968;-85
2022/10/31 12:45:25;;;;;;;;;;;;;;;17.74;58.24;99313.31;4486882;32;20364;-85
2022/10/31 12:47:56;;;;;;;;;;;;;;;17.76;58.16;99314.06;4488506;31;19976;-85
2022/10/31 12:50:21;;;;;;;;;;;;;;;17.73;58.20;99314.31;4488327;32;19983;-86
2022/10/31 12:52:50;;;;;;;;;;;;;;;17.74;58.20;99313.31;4488476;32;19994;-85